sensor_id;sensor_type;location;lat;lon;timestamp;temperature;humidity
59146;DHT22;44928;53.074;6.646;2023-04-03T00:01:10;3.20;99.90
59146;DHT22;44928;53.074;6.646;2023-04-03T00:03:36;3.20;99.90
59146;DHT22;44928;53.074;6.646;2023-04-03T00:06:03;3.10;99.90
59146;DHT22;44928;53.074;6.646;2023-04-03T00:08:31;3.10;99.90
59146;DHT22;44928;53.074;6.646;2023-04-03T00:10:58;3.10;99.90
59146;DHT22;44928;53.074;6.646;2023-04-03T00:13:24;3.10;99.90
59146;DHT22;44928;53.074;6.646;2023-04-03T00:15:51;3.00;99.90
59146;DHT22;44928;53.074;6.646;2023-04-03T00:18:17;2.90;99.90
59146;DHT22;44928;53.074;6.646;2023-04-03T00:20:43;2.90;99.90
59146;DHT22;44928;53.074;6.646;2023-04-03T00:23:09;2.90;99.90
59146;DHT22;44928;53.074;6.646;2023-04-03T00:25:35;2.90;99.90
59146;DHT22;44928;53.074;6.646;2023-04-03T00:28:01;2.80;99.90
59146;DHT22;44928;53.074;6.646;2023-04-03T00:30:27;2.80;99.90
59146;DHT22;44928;53.074;6.646;2023-04-03T00:32:53;2.80;99.90
59146;DHT22;44928;53.074;6.646;2023-04-03T00:35:20;2.70;99.90
59146;DHT22;44928;53.074;6.646;2023-04-03T00:37:46;2.90;99.90
59146;DHT22;44928;53.074;6.646;2023-04-03T00:40:15;2.80;99.90
59146;DHT22;44928;53.074;6.646;2023-04-03T00:42:43;2.80;99.90
59146;DHT22;44928;53.074;6.646;2023-04-03T00:47:39;2.60;99.90
59146;DHT22;44928;53.074;6.646;2023-04-03T00:50:05;2.50;99.90
59146;DHT22;44928;53.074;6.646;2023-04-03T00:52:32;2.50;99.90
59146;DHT22;44928;53.074;6.646;2023-04-03T00:55:02;2.50;99.90
59146;DHT22;44928;53.074;6.646;2023-04-03T00:57:30;2.50;99.90
59146;DHT22;44928;53.074;6.646;2023-04-03T01:00:05;2.50;99.90
59146;DHT22;44928;53.074;6.646;2023-04-03T01:02:32;2.40;99.90
59146;DHT22;44928;53.074;6.646;2023-04-03T01:04:58;2.40;99.90
59146;DHT22;44928;53.074;6.646;2023-04-03T01:07:29;2.30;99.90
59146;DHT22;44928;53.074;6.646;2023-04-03T01:10:00;2.30;99.90
59146;DHT22;44928;53.074;6.646;2023-04-03T01:12:30;2.30;99.90
59146;DHT22;44928;53.074;6.646;2023-04-03T01:14:59;2.20;99.90
59146;DHT22;44928;53.074;6.646;2023-04-03T01:17:33;2.20;99.90
59146;DHT22;44928;53.074;6.646;2023-04-03T01:20:18;2.20;99.90
59146;DHT22;44928;53.074;6.646;2023-04-03T01:23:32;2.20;99.90
59146;DHT22;44928;53.074;6.646;2023-04-03T01:25:50;2.10;99.90
59146;DHT22;44928;53.074;6.646;2023-04-03T01:28:20;2.10;99.90
59146;DHT22;44928;53.074;6.646;2023-04-03T01:33:30;2.00;99.90
59146;DHT22;44928;53.074;6.646;2023-04-03T01:35:56;2.00;99.90
59146;DHT22;44928;53.074;6.646;2023-04-03T01:38:23;2.00;99.90
59146;DHT22;44928;53.074;6.646;2023-04-03T01:40:48;2.00;99.90
59146;DHT22;44928;53.074;6.646;2023-04-03T01:43:14;2.00;99.90
59146;DHT22;44928;53.074;6.646;2023-04-03T01:45:40;1.90;99.90
59146;DHT22;44928;53.074;6.646;2023-04-03T01:48:06;1.90;99.90
59146;DHT22;44928;53.074;6.646;2023-04-03T01:50:32;1.90;99.90
59146;DHT22;44928;53.074;6.646;2023-04-03T01:52:58;1.90;99.90
59146;DHT22;44928;53.074;6.646;2023-04-03T01:55:24;1.90;99.90
59146;DHT22;44928;53.074;6.646;2023-04-03T01:57:49;1.90;99.90
59146;DHT22;44928;53.074;6.646;2023-04-03T02:00:15;1.90;99.90
59146;DHT22;44928;53.074;6.646;2023-04-03T02:02:42;1.80;99.90
59146;DHT22;44928;53.074;6.646;2023-04-03T02:05:08;1.80;99.90
59146;DHT22;44928;53.074;6.646;2023-04-03T02:07:34;1.80;99.90
59146;DHT22;44928;53.074;6.646;2023-04-03T02:10:00;1.80;99.90
59146;DHT22;44928;53.074;6.646;2023-04-03T02:12:25;1.80;99.90
59146;DHT22;44928;53.074;6.646;2023-04-03T02:14:51;1.70;99.90
59146;DHT22;44928;53.074;6.646;2023-04-03T02:17:17;1.70;99.90
59146;DHT22;44928;53.074;6.646;2023-04-03T02:19:43;1.70;99.90
59146;DHT22;44928;53.074;6.646;2023-04-03T02:22:08;1.60;99.90
59146;DHT22;44928;53.074;6.646;2023-04-03T02:24:34;1.60;99.90
59146;DHT22;44928;53.074;6.646;2023-04-03T02:27:00;1.60;99.90
59146;DHT22;44928;53.074;6.646;2023-04-03T02:29:26;1.50;99.90
59146;DHT22;44928;53.074;6.646;2023-04-03T02:31:52;1.50;99.90
59146;DHT22;44928;53.074;6.646;2023-04-03T02:34:18;1.50;99.90
59146;DHT22;44928;53.074;6.646;2023-04-03T02:36:43;1.50;99.90
59146;DHT22;44928;53.074;6.646;2023-04-03T02:39:10;1.40;99.90
59146;DHT22;44928;53.074;6.646;2023-04-03T02:41:36;1.40;99.90
59146;DHT22;44928;53.074;6.646;2023-04-03T02:44:03;1.40;99.90
59146;DHT22;44928;53.074;6.646;2023-04-03T02:46:29;1.40;99.90
59146;DHT22;44928;53.074;6.646;2023-04-03T02:48:55;1.40;99.90
59146;DHT22;44928;53.074;6.646;2023-04-03T02:51:21;1.30;99.90
59146;DHT22;44928;53.074;6.646;2023-04-03T02:53:49;1.30;99.90
59146;DHT22;44928;53.074;6.646;2023-04-03T02:56:15;1.30;99.90
59146;DHT22;44928;53.074;6.646;2023-04-03T02:58:41;1.20;99.90
59146;DHT22;44928;53.074;6.646;2023-04-03T03:01:06;1.20;99.90
59146;DHT22;44928;53.074;6.646;2023-04-03T03:03:32;1.20;99.90
59146;DHT22;44928;53.074;6.646;2023-04-03T03:06:07;1.10;99.90
59146;DHT22;44928;53.074;6.646;2023-04-03T03:08:34;1.20;99.90
59146;DHT22;44928;53.074;6.646;2023-04-03T03:10:59;1.10;99.90
59146;DHT22;44928;53.074;6.646;2023-04-03T03:13:25;1.10;99.90
59146;DHT22;44928;53.074;6.646;2023-04-03T03:15:51;1.10;99.90
59146;DHT22;44928;53.074;6.646;2023-04-03T03:18:17;1.10;99.90
59146;DHT22;44928;53.074;6.646;2023-04-03T03:20:43;1.10;99.90
59146;DHT22;44928;53.074;6.646;2023-04-03T03:23:09;1.10;99.90
59146;DHT22;44928;53.074;6.646;2023-04-03T03:25:41;1.00;99.90
59146;DHT22;44928;53.074;6.646;2023-04-03T03:28:07;1.00;99.90
59146;DHT22;44928;53.074;6.646;2023-04-03T03:30:33;1.00;99.90
59146;DHT22;44928;53.074;6.646;2023-04-03T03:32:59;0.90;99.90
59146;DHT22;44928;53.074;6.646;2023-04-03T03:35:25;0.80;99.90
59146;DHT22;44928;53.074;6.646;2023-04-03T03:37:51;0.80;99.90
59146;DHT22;44928;53.074;6.646;2023-04-03T03:40:17;0.80;99.90
59146;DHT22;44928;53.074;6.646;2023-04-03T03:42:43;0.80;99.90
59146;DHT22;44928;53.074;6.646;2023-04-03T03:45:09;0.80;99.90
59146;DHT22;44928;53.074;6.646;2023-04-03T03:47:35;0.80;99.90
59146;DHT22;44928;53.074;6.646;2023-04-03T03:50:01;0.70;99.90
59146;DHT22;44928;53.074;6.646;2023-04-03T03:52:27;0.70;99.90
59146;DHT22;44928;53.074;6.646;2023-04-03T03:54:53;0.70;99.90
59146;DHT22;44928;53.074;6.646;2023-04-03T03:57:19;0.70;99.90
59146;DHT22;44928;53.074;6.646;2023-04-03T03:59:45;0.60;99.90
59146;DHT22;44928;53.074;6.646;2023-04-03T04:02:11;0.60;99.90
59146;DHT22;44928;53.074;6.646;2023-04-03T04:04:37;0.60;99.90
59146;DHT22;44928;53.074;6.646;2023-04-03T04:07:03;0.60;99.90
59146;DHT22;44928;53.074;6.646;2023-04-03T04:09:29;0.60;99.90
59146;DHT22;44928;53.074;6.646;2023-04-03T04:11:55;0.60;99.90
59146;DHT22;44928;53.074;6.646;2023-04-03T04:14:21;0.60;99.90
59146;DHT22;44928;53.074;6.646;2023-04-03T04:16:47;0.60;99.90
59146;DHT22;44928;53.074;6.646;2023-04-03T04:19:13;0.60;99.90
59146;DHT22;44928;53.074;6.646;2023-04-03T04:21:40;0.50;99.90
59146;DHT22;44928;53.074;6.646;2023-04-03T04:24:08;0.50;99.90
59146;DHT22;44928;53.074;6.646;2023-04-03T04:26:34;0.50;99.90
59146;DHT22;44928;53.074;6.646;2023-04-03T04:29:00;0.40;99.90
59146;DHT22;44928;53.074;6.646;2023-04-03T04:31:26;0.40;99.90
59146;DHT22;44928;53.074;6.646;2023-04-03T04:33:52;0.40;99.90
59146;DHT22;44928;53.074;6.646;2023-04-03T04:36:18;0.40;99.90
59146;DHT22;44928;53.074;6.646;2023-04-03T04:38:44;0.30;99.90
59146;DHT22;44928;53.074;6.646;2023-04-03T04:41:10;0.30;99.90
59146;DHT22;44928;53.074;6.646;2023-04-03T04:43:36;0.30;99.90
59146;DHT22;44928;53.074;6.646;2023-04-03T04:46:04;0.30;99.90
59146;DHT22;44928;53.074;6.646;2023-04-03T04:48:30;0.30;99.90
59146;DHT22;44928;53.074;6.646;2023-04-03T04:50:56;0.30;99.90
59146;DHT22;44928;53.074;6.646;2023-04-03T04:53:22;0.30;99.90
59146;DHT22;44928;53.074;6.646;2023-04-03T04:55:48;0.20;99.90
59146;DHT22;44928;53.074;6.646;2023-04-03T04:58:14;0.20;99.90
59146;DHT22;44928;53.074;6.646;2023-04-03T05:00:40;0.30;99.90
59146;DHT22;44928;53.074;6.646;2023-04-03T05:03:05;0.20;99.90
59146;DHT22;44928;53.074;6.646;2023-04-03T05:05:31;0.30;99.90
59146;DHT22;44928;53.074;6.646;2023-04-03T05:07:57;0.20;99.90
59146;DHT22;44928;53.074;6.646;2023-04-03T05:10:23;0.20;99.90
59146;DHT22;44928;53.074;6.646;2023-04-03T05:12:49;0.20;99.90
59146;DHT22;44928;53.074;6.646;2023-04-03T05:15:14;0.20;99.90
59146;DHT22;44928;53.074;6.646;2023-04-03T05:17:40;0.20;99.90
59146;DHT22;44928;53.074;6.646;2023-04-03T05:20:07;0.20;99.90
59146;DHT22;44928;53.074;6.646;2023-04-03T05:22:33;0.10;99.90
59146;DHT22;44928;53.074;6.646;2023-04-03T05:24:58;0.10;99.90
59146;DHT22;44928;53.074;6.646;2023-04-03T05:27:24;0.10;99.90
59146;DHT22;44928;53.074;6.646;2023-04-03T05:29:52;0.10;99.90
59146;DHT22;44928;53.074;6.646;2023-04-03T05:32:18;0.10;99.90
59146;DHT22;44928;53.074;6.646;2023-04-03T05:34:43;0.10;99.90
59146;DHT22;44928;53.074;6.646;2023-04-03T05:37:10;0.10;99.90
59146;DHT22;44928;53.074;6.646;2023-04-03T05:39:36;0.10;99.90
59146;DHT22;44928;53.074;6.646;2023-04-03T05:42:03;0.10;99.90
59146;DHT22;44928;53.074;6.646;2023-04-03T05:44:29;0.10;99.90
59146;DHT22;44928;53.074;6.646;2023-04-03T05:46:55;0.10;99.90
59146;DHT22;44928;53.074;6.646;2023-04-03T05:49:21;0.10;99.90
59146;DHT22;44928;53.074;6.646;2023-04-03T05:51:47;0.10;99.90
59146;DHT22;44928;53.074;6.646;2023-04-03T05:54:24;0.10;99.90
59146;DHT22;44928;53.074;6.646;2023-04-03T05:56:51;0.10;99.90
59146;DHT22;44928;53.074;6.646;2023-04-03T05:59:17;0.20;99.90
59146;DHT22;44928;53.074;6.646;2023-04-03T06:01:43;0.20;99.90
59146;DHT22;44928;53.074;6.646;2023-04-03T06:04:10;0.20;99.90
59146;DHT22;44928;53.074;6.646;2023-04-03T06:09:12;0.20;99.90
59146;DHT22;44928;53.074;6.646;2023-04-03T06:11:38;0.30;99.90
59146;DHT22;44928;53.074;6.646;2023-04-03T06:14:04;0.30;99.90
59146;DHT22;44928;53.074;6.646;2023-04-03T06:16:30;0.30;99.90
59146;DHT22;44928;53.074;6.646;2023-04-03T06:18:56;0.40;99.90
59146;DHT22;44928;53.074;6.646;2023-04-03T06:21:22;0.40;99.90
59146;DHT22;44928;53.074;6.646;2023-04-03T06:23:48;0.40;99.90
59146;DHT22;44928;53.074;6.646;2023-04-03T06:26:14;0.50;99.90
59146;DHT22;44928;53.074;6.646;2023-04-03T06:28:40;0.50;99.90
59146;DHT22;44928;53.074;6.646;2023-04-03T06:31:05;0.50;99.90
59146;DHT22;44928;53.074;6.646;2023-04-03T06:33:31;0.60;99.90
59146;DHT22;44928;53.074;6.646;2023-04-03T06:35:58;0.60;99.90
59146;DHT22;44928;53.074;6.646;2023-04-03T06:38:24;0.70;99.90
59146;DHT22;44928;53.074;6.646;2023-04-03T06:40:51;0.80;99.90
59146;DHT22;44928;53.074;6.646;2023-04-03T06:43:17;0.80;99.90
59146;DHT22;44928;53.074;6.646;2023-04-03T06:45:43;0.90;99.90
59146;DHT22;44928;53.074;6.646;2023-04-03T06:48:08;1.00;99.90
59146;DHT22;44928;53.074;6.646;2023-04-03T06:50:34;1.10;99.90
59146;DHT22;44928;53.074;6.646;2023-04-03T06:53:00;1.10;99.90
59146;DHT22;44928;53.074;6.646;2023-04-03T06:55:26;1.20;99.90
59146;DHT22;44928;53.074;6.646;2023-04-03T06:57:52;1.30;99.90
59146;DHT22;44928;53.074;6.646;2023-04-03T07:00:18;1.40;99.90
59146;DHT22;44928;53.074;6.646;2023-04-03T07:02:44;1.40;99.90
59146;DHT22;44928;53.074;6.646;2023-04-03T07:05:11;1.50;99.90
59146;DHT22;44928;53.074;6.646;2023-04-03T07:07:37;1.60;99.90
59146;DHT22;44928;53.074;6.646;2023-04-03T07:10:04;1.60;99.90
59146;DHT22;44928;53.074;6.646;2023-04-03T07:12:30;1.70;99.90
59146;DHT22;44928;53.074;6.646;2023-04-03T07:14:56;1.70;99.90
59146;DHT22;44928;53.074;6.646;2023-04-03T07:17:22;1.80;99.90
59146;DHT22;44928;53.074;6.646;2023-04-03T07:19:47;1.90;99.90
59146;DHT22;44928;53.074;6.646;2023-04-03T07:22:13;2.00;99.90
59146;DHT22;44928;53.074;6.646;2023-04-03T07:24:39;2.00;99.90
59146;DHT22;44928;53.074;6.646;2023-04-03T07:27:05;2.10;99.90
59146;DHT22;44928;53.074;6.646;2023-04-03T07:29:31;2.10;99.90
59146;DHT22;44928;53.074;6.646;2023-04-03T07:31:57;2.20;99.90
59146;DHT22;44928;53.074;6.646;2023-04-03T07:34:22;2.20;99.90
59146;DHT22;44928;53.074;6.646;2023-04-03T07:36:48;2.30;99.90
59146;DHT22;44928;53.074;6.646;2023-04-03T07:39:14;2.30;99.90
59146;DHT22;44928;53.074;6.646;2023-04-03T07:41:40;2.40;99.90
59146;DHT22;44928;53.074;6.646;2023-04-03T07:44:06;2.40;99.90
59146;DHT22;44928;53.074;6.646;2023-04-03T07:46:35;2.50;99.90
59146;DHT22;44928;53.074;6.646;2023-04-03T07:49:01;2.50;99.90
59146;DHT22;44928;53.074;6.646;2023-04-03T07:51:26;2.60;99.90
59146;DHT22;44928;53.074;6.646;2023-04-03T07:53:53;2.60;99.90
59146;DHT22;44928;53.074;6.646;2023-04-03T07:56:19;2.70;99.90
59146;DHT22;44928;53.074;6.646;2023-04-03T07:58:46;2.80;99.90
59146;DHT22;44928;53.074;6.646;2023-04-03T08:01:12;2.90;99.90
59146;DHT22;44928;53.074;6.646;2023-04-03T08:03:39;2.90;99.90
59146;DHT22;44928;53.074;6.646;2023-04-03T08:06:06;3.00;99.90
59146;DHT22;44928;53.074;6.646;2023-04-03T08:08:33;3.10;99.90
59146;DHT22;44928;53.074;6.646;2023-04-03T08:11:00;3.10;99.90
59146;DHT22;44928;53.074;6.646;2023-04-03T08:13:28;3.20;99.90
59146;DHT22;44928;53.074;6.646;2023-04-03T08:15:54;3.20;99.90
59146;DHT22;44928;53.074;6.646;2023-04-03T08:18:23;3.30;99.90
59146;DHT22;44928;53.074;6.646;2023-04-03T08:20:51;3.40;99.90
59146;DHT22;44928;53.074;6.646;2023-04-03T08:23:18;3.50;99.90
59146;DHT22;44928;53.074;6.646;2023-04-03T08:25:44;3.60;99.90
59146;DHT22;44928;53.074;6.646;2023-04-03T08:28:11;3.70;99.90
59146;DHT22;44928;53.074;6.646;2023-04-03T08:30:41;3.80;99.90
59146;DHT22;44928;53.074;6.646;2023-04-03T08:33:08;3.90;99.90
59146;DHT22;44928;53.074;6.646;2023-04-03T08:35:39;4.00;99.90
59146;DHT22;44928;53.074;6.646;2023-04-03T08:38:04;4.10;99.90
59146;DHT22;44928;53.074;6.646;2023-04-03T08:40:31;4.10;99.90
59146;DHT22;44928;53.074;6.646;2023-04-03T08:45:50;4.20;99.90
59146;DHT22;44928;53.074;6.646;2023-04-03T08:48:27;4.20;99.90
59146;DHT22;44928;53.074;6.646;2023-04-03T08:51:00;4.30;99.90
59146;DHT22;44928;53.074;6.646;2023-04-03T08:53:30;4.40;99.90
59146;DHT22;44928;53.074;6.646;2023-04-03T08:55:58;4.40;99.90
59146;DHT22;44928;53.074;6.646;2023-04-03T08:58:28;4.50;99.90
59146;DHT22;44928;53.074;6.646;2023-04-03T09:01:07;4.60;99.90
59146;DHT22;44928;53.074;6.646;2023-04-03T09:03:42;4.70;99.90
59146;DHT22;44928;53.074;6.646;2023-04-03T09:06:22;4.70;99.90
59146;DHT22;44928;53.074;6.646;2023-04-03T09:16:49;5.00;99.90
59146;DHT22;44928;53.074;6.646;2023-04-03T09:21:52;5.20;99.90
59146;DHT22;44928;53.074;6.646;2023-04-03T09:24:18;5.30;99.90
59146;DHT22;44928;53.074;6.646;2023-04-03T09:26:58;5.40;99.90
59146;DHT22;44928;53.074;6.646;2023-04-03T09:29:26;5.50;99.90
59146;DHT22;44928;53.074;6.646;2023-04-03T09:32:19;5.60;99.90
59146;DHT22;44928;53.074;6.646;2023-04-03T09:34:47;5.70;99.90
59146;DHT22;44928;53.074;6.646;2023-04-03T09:37:38;5.80;99.90
59146;DHT22;44928;53.074;6.646;2023-04-03T09:40:05;6.00;96.80
59146;DHT22;44928;53.074;6.646;2023-04-03T09:42:32;6.10;96.20
59146;DHT22;44928;53.074;6.646;2023-04-03T09:45:02;6.30;90.20
59146;DHT22;44928;53.074;6.646;2023-04-03T09:47:33;6.40;90.00
59146;DHT22;44928;53.074;6.646;2023-04-03T09:52:39;6.80;71.70
59146;DHT22;44928;53.074;6.646;2023-04-03T09:57:39;7.20;67.10
59146;DHT22;44928;53.074;6.646;2023-04-03T10:00:10;7.30;65.10
59146;DHT22;44928;53.074;6.646;2023-04-03T10:02:44;7.50;64.20
59146;DHT22;44928;53.074;6.646;2023-04-03T10:05:36;7.60;64.80
59146;DHT22;44928;53.074;6.646;2023-04-03T10:10:48;7.80;61.30
59146;DHT22;44928;53.074;6.646;2023-04-03T10:13:32;7.80;60.70
59146;DHT22;44928;53.074;6.646;2023-04-03T10:16:10;7.70;60.90
59146;DHT22;44928;53.074;6.646;2023-04-03T10:19:04;7.80;60.00
59146;DHT22;44928;53.074;6.646;2023-04-03T10:21:48;7.80;60.80
59146;DHT22;44928;53.074;6.646;2023-04-03T10:24:28;7.80;61.60
59146;DHT22;44928;53.074;6.646;2023-04-03T10:27:18;7.90;61.40
59146;DHT22;44928;53.074;6.646;2023-04-03T10:30:11;8.00;61.00
59146;DHT22;44928;53.074;6.646;2023-04-03T10:40:33;8.30;58.30
59146;DHT22;44928;53.074;6.646;2023-04-03T10:43:29;8.50;58.80
59146;DHT22;44928;53.074;6.646;2023-04-03T10:51:37;9.30;58.80
59146;DHT22;44928;53.074;6.646;2023-04-03T10:54:41;9.40;56.40
59146;DHT22;44928;53.074;6.646;2023-04-03T10:57:10;9.60;56.30
59146;DHT22;44928;53.074;6.646;2023-04-03T11:02:28;9.80;57.40
59146;DHT22;44928;53.074;6.646;2023-04-03T11:07:37;10.10;56.50
59146;DHT22;44928;53.074;6.646;2023-04-03T11:10:11;10.30;55.20
59146;DHT22;44928;53.074;6.646;2023-04-03T11:12:59;10.30;54.60
59146;DHT22;44928;53.074;6.646;2023-04-03T11:15:29;10.40;54.60
59146;DHT22;44928;53.074;6.646;2023-04-03T11:18:04;10.50;54.50
59146;DHT22;44928;53.074;6.646;2023-04-03T11:20:32;10.60;55.70
59146;DHT22;44928;53.074;6.646;2023-04-03T11:25:50;10.80;53.10
59146;DHT22;44928;53.074;6.646;2023-04-03T11:28:17;10.90;54.20
59146;DHT22;44928;53.074;6.646;2023-04-03T11:30:53;11.00;53.60
59146;DHT22;44928;53.074;6.646;2023-04-03T11:35:58;11.40;52.20
59146;DHT22;44928;53.074;6.646;2023-04-03T11:38:30;11.40;51.60
59146;DHT22;44928;53.074;6.646;2023-04-03T11:41:00;11.40;49.80
59146;DHT22;44928;53.074;6.646;2023-04-03T11:43:29;11.40;50.30
59146;DHT22;44928;53.074;6.646;2023-04-03T11:46:03;11.40;50.90
59146;DHT22;44928;53.074;6.646;2023-04-03T11:53:41;11.40;51.00
59146;DHT22;44928;53.074;6.646;2023-04-03T11:56:28;11.40;51.30
59146;DHT22;44928;53.074;6.646;2023-04-03T12:01:52;11.80;51.40
59146;DHT22;44928;53.074;6.646;2023-04-03T12:04:21;11.90;51.20
59146;DHT22;44928;53.074;6.646;2023-04-03T12:09:52;11.80;49.60
59146;DHT22;44928;53.074;6.646;2023-04-03T12:12:35;11.80;50.30
59146;DHT22;44928;53.074;6.646;2023-04-03T12:15:22;11.70;50.30
59146;DHT22;44928;53.074;6.646;2023-04-03T12:17:49;11.80;50.50
59146;DHT22;44928;53.074;6.646;2023-04-03T12:23:37;12.00;48.60
59146;DHT22;44928;53.074;6.646;2023-04-03T12:26:24;12.10;49.70
59146;DHT22;44928;53.074;6.646;2023-04-03T12:28:53;12.20;49.30
59146;DHT22;44928;53.074;6.646;2023-04-03T12:31:23;12.30;48.00
59146;DHT22;44928;53.074;6.646;2023-04-03T12:47:24;12.80;48.70
59146;DHT22;44928;53.074;6.646;2023-04-03T12:49:52;12.80;48.20
59146;DHT22;44928;53.074;6.646;2023-04-03T12:54:56;12.80;47.70
59146;DHT22;44928;53.074;6.646;2023-04-03T12:57:26;12.70;48.20
59146;DHT22;44928;53.074;6.646;2023-04-03T12:59:53;12.80;48.40
59146;DHT22;44928;53.074;6.646;2023-04-03T13:02:31;13.00;49.00
59146;DHT22;44928;53.074;6.646;2023-04-03T13:04:59;13.30;48.50
59146;DHT22;44928;53.074;6.646;2023-04-03T13:07:30;13.50;48.80
59146;DHT22;44928;53.074;6.646;2023-04-03T13:12:34;13.30;47.90
59146;DHT22;44928;53.074;6.646;2023-04-03T13:15:11;13.40;48.70
59146;DHT22;44928;53.074;6.646;2023-04-03T13:17:42;13.30;49.20
59146;DHT22;44928;53.074;6.646;2023-04-03T13:20:19;13.40;48.80
59146;DHT22;44928;53.074;6.646;2023-04-03T13:23:05;13.30;48.50
59146;DHT22;44928;53.074;6.646;2023-04-03T13:25:34;13.30;49.10
59146;DHT22;44928;53.074;6.646;2023-04-03T13:28:03;13.20;47.20
59146;DHT22;44928;53.074;6.646;2023-04-03T13:30:35;13.10;46.90
59146;DHT22;44928;53.074;6.646;2023-04-03T13:33:17;12.90;47.10
59146;DHT22;44928;53.074;6.646;2023-04-03T13:35:44;12.80;47.50
59146;DHT22;44928;53.074;6.646;2023-04-03T13:38:22;12.80;47.70
59146;DHT22;44928;53.074;6.646;2023-04-03T13:40:57;12.80;47.00
59146;DHT22;44928;53.074;6.646;2023-04-03T13:43:32;12.90;47.50
59146;DHT22;44928;53.074;6.646;2023-04-03T13:46:20;13.00;48.50
59146;DHT22;44928;53.074;6.646;2023-04-03T13:48:51;13.10;49.20
59146;DHT22;44928;53.074;6.646;2023-04-03T13:51:28;13.10;46.30
59146;DHT22;44928;53.074;6.646;2023-04-03T13:53:58;13.20;46.60
59146;DHT22;44928;53.074;6.646;2023-04-03T13:56:33;13.50;47.00
59146;DHT22;44928;53.074;6.646;2023-04-03T13:59:18;13.80;46.60
59146;DHT22;44928;53.074;6.646;2023-04-03T14:01:50;13.80;46.50
59146;DHT22;44928;53.074;6.646;2023-04-03T14:04:22;13.90;45.20
59146;DHT22;44928;53.074;6.646;2023-04-03T14:06:49;14.20;45.40
59146;DHT22;44928;53.074;6.646;2023-04-03T14:09:17;14.50;45.00
59146;DHT22;44928;53.074;6.646;2023-04-03T14:11:44;14.80;45.60
59146;DHT22;44928;53.074;6.646;2023-04-03T14:14:16;15.00;44.70
59146;DHT22;44928;53.074;6.646;2023-04-03T14:16:46;15.00;44.50
59146;DHT22;44928;53.074;6.646;2023-04-03T14:19:28;15.00;45.20
59146;DHT22;44928;53.074;6.646;2023-04-03T14:21:55;15.10;44.30
59146;DHT22;44928;53.074;6.646;2023-04-03T14:24:21;15.00;44.60
59146;DHT22;44928;53.074;6.646;2023-04-03T14:26:52;15.00;44.10
59146;DHT22;44928;53.074;6.646;2023-04-03T14:29:18;14.90;44.70
59146;DHT22;44928;53.074;6.646;2023-04-03T14:31:45;15.00;44.50
59146;DHT22;44928;53.074;6.646;2023-04-03T14:34:12;15.00;44.80
59146;DHT22;44928;53.074;6.646;2023-04-03T14:36:39;15.00;45.30
59146;DHT22;44928;53.074;6.646;2023-04-03T14:39:07;15.00;44.50
59146;DHT22;44928;53.074;6.646;2023-04-03T14:41:35;15.00;44.80
59146;DHT22;44928;53.074;6.646;2023-04-03T14:44:00;15.00;44.80
59146;DHT22;44928;53.074;6.646;2023-04-03T14:46:34;15.10;44.90
59146;DHT22;44928;53.074;6.646;2023-04-03T14:49:02;15.20;45.00
59146;DHT22;44928;53.074;6.646;2023-04-03T14:51:32;15.20;44.60
59146;DHT22;44928;53.074;6.646;2023-04-03T14:53:58;15.10;45.20
59146;DHT22;44928;53.074;6.646;2023-04-03T14:56:27;15.10;45.50
59146;DHT22;44928;53.074;6.646;2023-04-03T14:58:59;15.10;45.00
59146;DHT22;44928;53.074;6.646;2023-04-03T15:01:26;15.20;44.70
59146;DHT22;44928;53.074;6.646;2023-04-03T15:03:52;15.30;45.10
59146;DHT22;44928;53.074;6.646;2023-04-03T15:06:17;15.20;44.30
59146;DHT22;44928;53.074;6.646;2023-04-03T15:08:45;15.00;43.50
59146;DHT22;44928;53.074;6.646;2023-04-03T15:11:13;14.90;43.20
59146;DHT22;44928;53.074;6.646;2023-04-03T15:13:39;14.60;43.90
59146;DHT22;44928;53.074;6.646;2023-04-03T15:16:14;14.40;43.40
59146;DHT22;44928;53.074;6.646;2023-04-03T15:18:40;14.30;43.50
59146;DHT22;44928;53.074;6.646;2023-04-03T15:21:06;14.30;43.60
59146;DHT22;44928;53.074;6.646;2023-04-03T15:23:32;14.20;43.90
59146;DHT22;44928;53.074;6.646;2023-04-03T15:25:58;14.20;44.00
59146;DHT22;44928;53.074;6.646;2023-04-03T15:28:36;14.20;44.40
59146;DHT22;44928;53.074;6.646;2023-04-03T15:31:04;14.10;44.80
59146;DHT22;44928;53.074;6.646;2023-04-03T15:33:31;14.10;46.10
59146;DHT22;44928;53.074;6.646;2023-04-03T15:35:57;14.20;45.70
59146;DHT22;44928;53.074;6.646;2023-04-03T15:38:23;14.20;45.20
59146;DHT22;44928;53.074;6.646;2023-04-03T15:40:49;14.30;45.20
59146;DHT22;44928;53.074;6.646;2023-04-03T15:43:15;14.30;44.90
59146;DHT22;44928;53.074;6.646;2023-04-03T15:45:42;14.20;44.90
59146;DHT22;44928;53.074;6.646;2023-04-03T15:48:09;14.10;45.30
59146;DHT22;44928;53.074;6.646;2023-04-03T15:50:36;14.00;45.50
59146;DHT22;44928;53.074;6.646;2023-04-03T15:53:02;14.00;46.40
59146;DHT22;44928;53.074;6.646;2023-04-03T15:55:30;14.00;45.60
59146;DHT22;44928;53.074;6.646;2023-04-03T15:57:57;13.90;45.60
59146;DHT22;44928;53.074;6.646;2023-04-03T16:00:24;13.70;45.60
59146;DHT22;44928;53.074;6.646;2023-04-03T16:02:53;13.50;46.00
59146;DHT22;44928;53.074;6.646;2023-04-03T16:05:19;13.40;45.80
59146;DHT22;44928;53.074;6.646;2023-04-03T16:07:45;13.30;45.70
59146;DHT22;44928;53.074;6.646;2023-04-03T16:10:13;13.10;45.70
59146;DHT22;44928;53.074;6.646;2023-04-03T16:12:39;12.90;45.70
59146;DHT22;44928;53.074;6.646;2023-04-03T16:15:06;12.90;46.90
59146;DHT22;44928;53.074;6.646;2023-04-03T16:17:33;12.90;46.90
59146;DHT22;44928;53.074;6.646;2023-04-03T16:20:00;12.90;47.30
59146;DHT22;44928;53.074;6.646;2023-04-03T16:22:27;12.90;46.90
59146;DHT22;44928;53.074;6.646;2023-04-03T16:24:54;12.80;46.00
59146;DHT22;44928;53.074;6.646;2023-04-03T16:27:21;12.80;45.60
59146;DHT22;44928;53.074;6.646;2023-04-03T16:29:47;12.70;45.90
59146;DHT22;44928;53.074;6.646;2023-04-03T16:32:13;12.70;46.40
59146;DHT22;44928;53.074;6.646;2023-04-03T16:34:39;12.70;46.80
59146;DHT22;44928;53.074;6.646;2023-04-03T16:37:06;12.80;46.80
59146;DHT22;44928;53.074;6.646;2023-04-03T16:39:34;12.60;46.00
59146;DHT22;44928;53.074;6.646;2023-04-03T16:42:00;12.40;46.50
59146;DHT22;44928;53.074;6.646;2023-04-03T16:44:26;12.30;46.50
59146;DHT22;44928;53.074;6.646;2023-04-03T16:46:52;12.20;47.30
59146;DHT22;44928;53.074;6.646;2023-04-03T16:49:18;12.10;47.70
59146;DHT22;44928;53.074;6.646;2023-04-03T16:51:44;12.00;47.30
59146;DHT22;44928;53.074;6.646;2023-04-03T16:54:10;11.90;47.60
59146;DHT22;44928;53.074;6.646;2023-04-03T16:56:38;11.80;48.00
59146;DHT22;44928;53.074;6.646;2023-04-03T16:59:04;11.70;48.10
59146;DHT22;44928;53.074;6.646;2023-04-03T17:01:29;11.60;48.30
59146;DHT22;44928;53.074;6.646;2023-04-03T17:03:55;11.40;48.60
59146;DHT22;44928;53.074;6.646;2023-04-03T17:06:22;11.30;49.40
59146;DHT22;44928;53.074;6.646;2023-04-03T17:08:50;11.10;49.30
59146;DHT22;44928;53.074;6.646;2023-04-03T17:11:17;10.90;49.10
59146;DHT22;44928;53.074;6.646;2023-04-03T17:13:43;10.80;50.00
59146;DHT22;44928;53.074;6.646;2023-04-03T17:16:12;10.70;50.50